createdAt,value
2018-09-25T00:07:50.369Z,99.99
2018-09-25T00:18:50.776Z,99.99
2018-09-25T00:29:49.407Z,99.99
2018-09-25T00:40:49.050Z,99.99
2018-09-25T00:51:47.265Z,99.99
2018-09-25T01:02:50.272Z,99.99
2018-09-25T01:13:49.528Z,99.99
2018-09-25T01:24:50.648Z,99.99
2018-09-25T01:35:52.690Z,99.99
2018-09-25T01:46:52.659Z,99.99
2018-09-25T01:57:54.792Z,99.99
2018-09-25T02:08:56.558Z,99.99
2018-09-25T02:19:57.372Z,99.99
2018-09-25T02:30:58.102Z,99.99
2018-09-25T02:42:00.421Z,99.99
2018-09-25T02:53:01.972Z,99.99
2018-09-25T03:04:04.871Z,99.99
2018-09-25T03:15:04.658Z,99.99
2018-09-25T03:26:04.619Z,99.99
2018-09-25T03:37:06.061Z,99.99
2018-09-25T03:48:07.296Z,99.99
2018-09-25T03:59:08.903Z,99.99
2018-09-25T04:10:04.753Z,99.99
2018-09-25T04:21:04.876Z,99.99
2018-09-25T04:32:06.518Z,99.99
2018-09-25T04:43:08.563Z,99.99
2018-09-25T04:54:11.525Z,99.99
2018-09-25T05:05:03.689Z,99.99
2018-09-25T05:16:01.833Z,99.99
2018-09-25T05:27:04.155Z,99.99
2018-09-25T05:38:06.100Z,99.99
2018-09-25T05:49:09.290Z,99.99
2018-09-25T06:00:10.691Z,99.99
2018-09-25T06:11:12.159Z,99.99
2018-09-25T06:22:14.407Z,99.99
2018-09-25T06:33:16.400Z,99.99
2018-09-25T06:44:19.417Z,99.99
2018-09-25T06:55:22.095Z,99.99
2018-09-25T07:06:24.932Z,99.99
2018-09-25T07:17:17.999Z,99.99
2018-09-25T07:28:20.986Z,99.99
2018-09-25T07:39:23.625Z,99.99
2018-09-25T07:50:25.769Z,99.99
2018-09-25T08:01:26.742Z,99.99
2018-09-25T08:12:28.561Z,99.99
2018-09-25T08:23:30.919Z,99.99
2018-09-25T08:34:33.674Z,94.23
2018-09-25T08:45:35.116Z,90.24
2018-09-25T08:56:37.076Z,88.33
2018-09-25T09:07:37.785Z,81.90
2018-09-25T09:18:39.369Z,77.14
2018-09-25T09:29:42.960Z,76.26
2018-09-25T09:40:41.901Z,70.89
2018-09-25T09:51:43.901Z,68.37
2018-09-25T10:02:47.407Z,68.57
2018-09-25T10:13:47.526Z,67.60
2018-09-25T10:24:30.089Z,68.25
2018-09-25T10:35:32.956Z,67.13
2018-09-25T10:46:29.840Z,68.51
2018-09-25T10:57:12.149Z,66.05
2018-09-25T11:07:51.259Z,68.00
2018-09-25T11:18:30.957Z,68.52
2018-09-25T11:29:11.637Z,68.63
2018-09-25T11:40:00.869Z,60.55
2018-09-25T11:50:45.022Z,62.27
2018-09-25T12:01:33.016Z,60.58
2018-09-25T12:12:16.186Z,64.84
2018-09-25T12:22:57.893Z,62.77
2018-09-25T12:33:41.922Z,66.45
2018-09-25T12:44:24.839Z,61.87
2018-09-25T12:55:08.274Z,64.06
2018-09-25T13:05:51.567Z,62.01
2018-09-25T13:16:37.925Z,59.28
2018-09-25T13:27:04.071Z,56.57
2018-09-25T13:37:45.598Z,60.25
2018-09-25T13:48:22.133Z,65.75
2018-09-25T13:59:04.144Z,64.39
2018-09-25T14:09:51.694Z,64.01
2018-09-25T14:20:19.029Z,63.98
2018-09-25T14:30:57.932Z,64.83
2018-09-25T14:41:39.368Z,64.65
2018-09-25T14:52:23.012Z,65.20
2018-09-25T15:03:07.099Z,65.51
2018-09-25T15:13:51.142Z,67.16
2018-09-25T15:24:32.743Z,67.36
2018-09-25T15:35:35.116Z,68.33
2018-09-25T15:46:36.580Z,69.57
2018-09-25T15:57:31.597Z,71.03
2018-09-25T16:08:26.236Z,72.08
2018-09-25T16:19:26.925Z,73.53
2018-09-25T16:30:23.883Z,81.59
2018-09-25T16:41:23.533Z,81.10
2018-09-25T16:52:23.519Z,85.00
2018-09-25T17:03:24.623Z,90.12
2018-09-25T17:14:24.795Z,96.17
2018-09-25T17:25:20.527Z,99.99
2018-09-25T17:36:13.879Z,99.99
2018-09-25T17:47:15.873Z,99.99
2018-09-25T17:58:18.796Z,99.99
2018-09-25T18:09:19.337Z,99.99
2018-09-25T18:20:16.836Z,99.99
2018-09-25T18:31:10.163Z,99.99
2018-09-25T18:42:06.267Z,99.99
2018-09-25T18:52:58.981Z,99.99
2018-09-25T19:03:53.651Z,99.99
2018-09-25T19:14:56.112Z,99.99
2018-09-25T19:25:55.256Z,99.99
2018-09-25T19:36:53.997Z,99.99
2018-09-25T19:47:54.785Z,99.99
2018-09-25T19:58:56.873Z,99.99
2018-09-25T20:09:52.535Z,99.99
2018-09-25T20:20:52.367Z,99.99
2018-09-25T20:31:50.093Z,99.99
2018-09-25T20:42:50.537Z,99.99
2018-09-25T20:53:48.791Z,99.99
2018-09-25T21:04:46.908Z,99.99
2018-09-25T21:15:47.024Z,99.99
2018-09-25T21:26:44.216Z,99.99
2018-09-25T21:37:45.622Z,99.99
2018-09-25T21:48:49.263Z,99.99
2018-09-25T21:59:51.516Z,99.99
2018-09-25T22:10:50.035Z,99.99
2018-09-25T22:21:53.253Z,99.99
2018-09-25T22:32:54.811Z,99.99
2018-09-25T22:43:56.800Z,99.99
2018-09-25T22:54:56.434Z,99.99
2018-09-25T23:05:55.737Z,99.99
2018-09-25T23:16:59.505Z,99.99
2018-09-25T23:27:58.419Z,99.99
2018-09-25T23:38:58.345Z,99.99
2018-09-25T23:49:57.061Z,99.99
